sensor_id;sensor_type;location;lat;lon;timestamp;pressure;altitude;pressure_sealevel;temperature;humidity
77469;BME280;68840;50.272;12.818;2023-12-04T00:00:07;96422;;;-2.1;59.3
77469;BME280;68840;50.272;12.818;2023-12-04T00:02:05;96422;;;-2.1;59.3
77469;BME280;68840;50.272;12.818;2023-12-04T00:04:06;96425;;;-2.1;59.2
77469;BME280;68840;50.272;12.818;2023-12-04T00:06:06;96428;;;-2.1;59.2
77469;BME280;68840;50.272;12.818;2023-12-04T00:08:05;96431;;;-2.1;58.9
77469;BME280;68840;50.272;12.818;2023-12-04T00:10:06;96431;;;-2.1;58.9
77469;BME280;68840;50.272;12.818;2023-12-04T00:12:06;96430;;;-2.1;59.0
77469;BME280;68840;50.272;12.818;2023-12-04T00:14:05;96427;;;-2.1;59.0
77469;BME280;68840;50.272;12.818;2023-12-04T00:16:06;96424;;;-2.2;59.2
77469;BME280;68840;50.272;12.818;2023-12-04T00:18:05;96421;;;-2.2;59.2
77469;BME280;68840;50.272;12.818;2023-12-04T00:20:07;96425;;;-2.2;59.2
77469;BME280;68840;50.272;12.818;2023-12-04T00:22:05;96426;;;-2.2;59.2
77469;BME280;68840;50.272;12.818;2023-12-04T00:24:05;96427;;;-2.2;59.1
77469;BME280;68840;50.272;12.818;2023-12-04T00:26:06;96421;;;-2.2;59.1
77469;BME280;68840;50.272;12.818;2023-12-04T00:28:05;96414;;;-2.2;59.1
77469;BME280;68840;50.272;12.818;2023-12-04T00:30:07;96410;;;-2.2;59.0
77469;BME280;68840;50.272;12.818;2023-12-04T00:32:05;96409;;;-2.3;58.9
77469;BME280;68840;50.272;12.818;2023-12-04T00:34:05;96409;;;-2.3;59.0
77469;BME280;68840;50.272;12.818;2023-12-04T00:36:06;96410;;;-2.3;59.2
77469;BME280;68840;50.272;12.818;2023-12-04T00:38:05;96410;;;-2.3;59.2
77469;BME280;68840;50.272;12.818;2023-12-04T00:40:06;96406;;;-2.3;59.1
77469;BME280;68840;50.272;12.818;2023-12-04T00:42:06;96404;;;-2.3;59.0
77469;BME280;68840;50.272;12.818;2023-12-04T00:44:05;96402;;;-2.3;59.0
77469;BME280;68840;50.272;12.818;2023-12-04T00:46:06;96401;;;-2.3;58.7
77469;BME280;68840;50.272;12.818;2023-12-04T00:48:05;96400;;;-2.4;58.6
77469;BME280;68840;50.272;12.818;2023-12-04T00:50:06;96402;;;-2.4;58.8
77469;BME280;68840;50.272;12.818;2023-12-04T00:52:05;96407;;;-2.4;59.0
77469;BME280;68840;50.272;12.818;2023-12-04T00:54:05;96412;;;-2.4;58.9
77469;BME280;68840;50.272;12.818;2023-12-04T00:56:06;96412;;;-2.4;58.8
77469;BME280;68840;50.272;12.818;2023-12-04T00:58:05;96409;;;-2.4;58.8
77469;BME280;68840;50.272;12.818;2023-12-04T01:00:06;96405;;;-2.4;58.8
77469;BME280;68840;50.272;12.818;2023-12-04T01:02:07;96404;;;-2.4;58.8
77469;BME280;68840;50.272;12.818;2023-12-04T01:04:05;96406;;;-2.4;58.8
77469;BME280;68840;50.272;12.818;2023-12-04T01:06:06;96409;;;-2.4;58.7
77469;BME280;68840;50.272;12.818;2023-12-04T01:08:05;96408;;;-2.4;58.7
77469;BME280;68840;50.272;12.818;2023-12-04T01:10:06;96406;;;-2.4;58.7
77469;BME280;68840;50.272;12.818;2023-12-04T01:12:06;96402;;;-2.4;58.5
77469;BME280;68840;50.272;12.818;2023-12-04T01:14:05;96395;;;-2.3;58.5
77469;BME280;68840;50.272;12.818;2023-12-04T01:16:07;96390;;;-2.3;58.3
77469;BME280;68840;50.272;12.818;2023-12-04T01:18:05;96389;;;-2.3;58.4
77469;BME280;68840;50.272;12.818;2023-12-04T01:20:06;96390;;;-2.3;58.2
77469;BME280;68840;50.272;12.818;2023-12-04T01:22:05;96392;;;-2.3;58.4
77469;BME280;68840;50.272;12.818;2023-12-04T01:24:05;96393;;;-2.3;58.4
77469;BME280;68840;50.272;12.818;2023-12-04T01:26:05;96392;;;-2.3;58.2
77469;BME280;68840;50.272;12.818;2023-12-04T01:28:05;96389;;;-2.3;58.1
77469;BME280;68840;50.272;12.818;2023-12-04T01:30:07;96384;;;-2.3;58.0
77469;BME280;68840;50.272;12.818;2023-12-04T01:32:06;96378;;;-2.4;58.1
77469;BME280;68840;50.272;12.818;2023-12-04T01:34:05;96374;;;-2.4;58.0
77469;BME280;68840;50.272;12.818;2023-12-04T01:36:06;96374;;;-2.4;58.2
77469;BME280;68840;50.272;12.818;2023-12-04T01:38:05;96377;;;-2.4;58.4
77469;BME280;68840;50.272;12.818;2023-12-04T01:40:07;96374;;;-2.4;58.4
77469;BME280;68840;50.272;12.818;2023-12-04T01:42:05;96369;;;-2.4;58.3
77469;BME280;68840;50.272;12.818;2023-12-04T01:44:05;96367;;;-2.4;58.1
77469;BME280;68840;50.272;12.818;2023-12-04T01:46:06;96369;;;-2.4;57.9
77469;BME280;68840;50.272;12.818;2023-12-04T01:48:06;96371;;;-2.4;57.8
77469;BME280;68840;50.272;12.818;2023-12-04T01:50:07;96365;;;-2.5;57.6
77469;BME280;68840;50.272;12.818;2023-12-04T01:52:06;96364;;;-2.5;57.9
77469;BME280;68840;50.272;12.818;2023-12-04T01:54:06;96361;;;-2.5;58.1
77469;BME280;68840;50.272;12.818;2023-12-04T01:56:08;96358;;;-2.5;58.1
77469;BME280;68840;50.272;12.818;2023-12-04T01:58:06;96352;;;-2.5;58.3
77469;BME280;68840;50.272;12.818;2023-12-04T02:00:11;96345;;;-2.5;58.0
77469;BME280;68840;50.272;12.818;2023-12-04T02:02:05;96334;;;-2.5;58.0
77469;BME280;68840;50.272;12.818;2023-12-04T02:04:06;96328;;;-2.6;57.7
77469;BME280;68840;50.272;12.818;2023-12-04T02:06:07;96325;;;-2.6;57.7
77469;BME280;68840;50.272;12.818;2023-12-04T02:08:05;96322;;;-2.6;57.8
77469;BME280;68840;50.272;12.818;2023-12-04T02:10:06;96321;;;-2.7;57.6
77469;BME280;68840;50.272;12.818;2023-12-04T02:12:06;96322;;;-2.7;58.0
77469;BME280;68840;50.272;12.818;2023-12-04T02:14:06;96320;;;-2.8;57.9
77469;BME280;68840;50.272;12.818;2023-12-04T02:16:09;96317;;;-2.8;58.0
77469;BME280;68840;50.272;12.818;2023-12-04T02:18:05;96314;;;-2.8;58.1
77469;BME280;68840;50.272;12.818;2023-12-04T02:20:07;96309;;;-2.9;58.0
77469;BME280;68840;50.272;12.818;2023-12-04T02:22:05;96305;;;-2.9;58.1
77469;BME280;68840;50.272;12.818;2023-12-04T02:24:06;96305;;;-2.9;58.4
77469;BME280;68840;50.272;12.818;2023-12-04T02:26:10;96307;;;-3.0;58.0
77469;BME280;68840;50.272;12.818;2023-12-04T02:28:08;96309;;;-3.0;57.9
77469;BME280;68840;50.272;12.818;2023-12-04T02:30:09;96307;;;-3.0;57.8
77469;BME280;68840;50.272;12.818;2023-12-04T02:32:06;96302;;;-3.0;58.0
77469;BME280;68840;50.272;12.818;2023-12-04T02:34:06;96302;;;-3.0;58.1
77469;BME280;68840;50.272;12.818;2023-12-04T02:36:07;96298;;;-3.0;58.2
77469;BME280;68840;50.272;12.818;2023-12-04T02:38:06;96293;;;-3.0;58.1
77469;BME280;68840;50.272;12.818;2023-12-04T02:40:07;96290;;;-3.0;58.1
77469;BME280;68840;50.272;12.818;2023-12-04T02:42:06;96285;;;-3.1;58.4
77469;BME280;68840;50.272;12.818;2023-12-04T02:44:05;96285;;;-3.1;58.4
77469;BME280;68840;50.272;12.818;2023-12-04T02:46:05;96282;;;-3.1;58.2
77469;BME280;68840;50.272;12.818;2023-12-04T02:48:06;96284;;;-3.1;58.1
77469;BME280;68840;50.272;12.818;2023-12-04T02:50:06;96285;;;-3.1;57.9
77469;BME280;68840;50.272;12.818;2023-12-04T02:52:05;96282;;;-3.2;57.8
77469;BME280;68840;50.272;12.818;2023-12-04T02:54:05;96276;;;-3.2;57.6
77469;BME280;68840;50.272;12.818;2023-12-04T02:56:06;96269;;;-3.2;57.5
77469;BME280;68840;50.272;12.818;2023-12-04T02:58:05;96264;;;-3.2;57.3
77469;BME280;68840;50.272;12.818;2023-12-04T03:00:06;96261;;;-3.2;57.1
77469;BME280;68840;50.272;12.818;2023-12-04T03:02:05;96262;;;-3.3;57.1
77469;BME280;68840;50.272;12.818;2023-12-04T03:04:05;96262;;;-3.3;57.3
77469;BME280;68840;50.272;12.818;2023-12-04T03:06:06;96261;;;-3.3;57.6
77469;BME280;68840;50.272;12.818;2023-12-04T03:08:05;96264;;;-3.3;57.5
77469;BME280;68840;50.272;12.818;2023-12-04T03:10:06;96266;;;-3.4;57.6
77469;BME280;68840;50.272;12.818;2023-12-04T03:12:06;96265;;;-3.4;57.9
77469;BME280;68840;50.272;12.818;2023-12-04T03:14:05;96263;;;-3.4;57.8
77469;BME280;68840;50.272;12.818;2023-12-04T03:16:06;96261;;;-3.5;57.7
77469;BME280;68840;50.272;12.818;2023-12-04T03:18:05;96264;;;-3.5;58.0
77469;BME280;68840;50.272;12.818;2023-12-04T03:20:09;96264;;;-3.5;57.8
77469;BME280;68840;50.272;12.818;2023-12-04T03:22:05;96263;;;-3.6;58.1
77469;BME280;68840;50.272;12.818;2023-12-04T03:24:06;96263;;;-3.6;58.2
77469;BME280;68840;50.272;12.818;2023-12-04T03:26:06;96262;;;-3.6;58.3
77469;BME280;68840;50.272;12.818;2023-12-04T03:28:05;96260;;;-3.6;58.3
77469;BME280;68840;50.272;12.818;2023-12-04T03:30:06;96256;;;-3.6;58.2
77469;BME280;68840;50.272;12.818;2023-12-04T03:32:05;96251;;;-3.6;58.2
77469;BME280;68840;50.272;12.818;2023-12-04T03:34:05;96248;;;-3.6;58.1
77469;BME280;68840;50.272;12.818;2023-12-04T03:36:06;96246;;;-3.6;58.1
77469;BME280;68840;50.272;12.818;2023-12-04T03:38:05;96243;;;-3.6;58.1
77469;BME280;68840;50.272;12.818;2023-12-04T03:40:06;96243;;;-3.6;58.0
77469;BME280;68840;50.272;12.818;2023-12-04T03:42:05;96245;;;-3.7;58.0
77469;BME280;68840;50.272;12.818;2023-12-04T03:44:05;96242;;;-3.7;57.9
77469;BME280;68840;50.272;12.818;2023-12-04T03:46:06;96239;;;-3.8;57.9
77469;BME280;68840;50.272;12.818;2023-12-04T03:48:05;96237;;;-3.9;58.0
77469;BME280;68840;50.272;12.818;2023-12-04T03:50:06;96236;;;-4.0;58.0
77469;BME280;68840;50.272;12.818;2023-12-04T03:52:05;96234;;;-4.1;58.1
77469;BME280;68840;50.272;12.818;2023-12-04T03:54:05;96234;;;-4.1;58.2
77469;BME280;68840;50.272;12.818;2023-12-04T03:56:06;96236;;;-4.2;58.3
77469;BME280;68840;50.272;12.818;2023-12-04T03:58:05;96234;;;-4.3;58.7
77469;BME280;68840;50.272;12.818;2023-12-04T04:00:06;96235;;;-4.4;58.9
77469;BME280;68840;50.272;12.818;2023-12-04T04:02:05;96237;;;-4.4;58.7
77469;BME280;68840;50.272;12.818;2023-12-04T04:04:05;96236;;;-4.5;58.9
77469;BME280;68840;50.272;12.818;2023-12-04T04:06:07;96233;;;-4.5;58.8
77469;BME280;68840;50.272;12.818;2023-12-04T04:08:07;96227;;;-4.6;59.1
77469;BME280;68840;50.272;12.818;2023-12-04T04:10:06;96221;;;-4.6;59.0
77469;BME280;68840;50.272;12.818;2023-12-04T04:12:05;96222;;;-4.7;59.1
77469;BME280;68840;50.272;12.818;2023-12-04T04:14:05;96221;;;-4.7;58.8
77469;BME280;68840;50.272;12.818;2023-12-04T04:16:06;96221;;;-4.8;58.7
77469;BME280;68840;50.272;12.818;2023-12-04T04:18:05;96219;;;-4.8;58.7
77469;BME280;68840;50.272;12.818;2023-12-04T04:20:06;96215;;;-4.9;58.7
77469;BME280;68840;50.272;12.818;2023-12-04T04:22:05;96215;;;-4.9;58.7
77469;BME280;68840;50.272;12.818;2023-12-04T04:24:05;96212;;;-5.0;58.9
77469;BME280;68840;50.272;12.818;2023-12-04T04:26:06;96214;;;-5.0;58.5
77469;BME280;68840;50.272;12.818;2023-12-04T04:28:05;96214;;;-5.0;58.2
77469;BME280;68840;50.272;12.818;2023-12-04T04:30:06;96215;;;-5.1;58.1
77469;BME280;68840;50.272;12.818;2023-12-04T04:32:06;96217;;;-5.1;58.7
77469;BME280;68840;50.272;12.818;2023-12-04T04:34:05;96216;;;-5.2;59.2
77469;BME280;68840;50.272;12.818;2023-12-04T04:36:09;96213;;;-5.2;58.6
77469;BME280;68840;50.272;12.818;2023-12-04T04:38:05;96211;;;-5.2;58.8
77469;BME280;68840;50.272;12.818;2023-12-04T04:40:06;96206;;;-5.3;59.0
77469;BME280;68840;50.272;12.818;2023-12-04T04:42:05;96203;;;-5.3;59.1
77469;BME280;68840;50.272;12.818;2023-12-04T04:44:06;96200;;;-5.3;59.2
77469;BME280;68840;50.272;12.818;2023-12-04T04:46:05;96198;;;-5.4;59.5
77469;BME280;68840;50.272;12.818;2023-12-04T04:48:05;96198;;;-5.4;60.0
77469;BME280;68840;50.272;12.818;2023-12-04T04:50:06;96199;;;-5.4;60.4
77469;BME280;68840;50.272;12.818;2023-12-04T04:52:05;96199;;;-5.5;60.6
77469;BME280;68840;50.272;12.818;2023-12-04T04:54:05;96202;;;-5.5;60.6
77469;BME280;68840;50.272;12.818;2023-12-04T04:56:07;96202;;;-5.5;60.2
77469;BME280;68840;50.272;12.818;2023-12-04T04:58:05;96203;;;-5.5;60.2
77469;BME280;68840;50.272;12.818;2023-12-04T05:00:07;96206;;;-5.5;60.6
77469;BME280;68840;50.272;12.818;2023-12-04T05:02:05;96204;;;-5.6;60.9
77469;BME280;68840;50.272;12.818;2023-12-04T05:04:05;96203;;;-5.6;61.0
77469;BME280;68840;50.272;12.818;2023-12-04T05:06:06;96199;;;-5.6;61.0
77469;BME280;68840;50.272;12.818;2023-12-04T05:08:06;96196;;;-5.6;60.6
77469;BME280;68840;50.272;12.818;2023-12-04T05:10:06;96191;;;-5.5;60.6
77469;BME280;68840;50.272;12.818;2023-12-04T05:12:06;96188;;;-5.6;60.9
77469;BME280;68840;50.272;12.818;2023-12-04T05:14:05;96185;;;-5.6;60.7
77469;BME280;68840;50.272;12.818;2023-12-04T05:16:06;96185;;;-5.6;60.8
77469;BME280;68840;50.272;12.818;2023-12-04T05:18:05;96186;;;-5.6;60.9
77469;BME280;68840;50.272;12.818;2023-12-04T05:20:07;96187;;;-5.6;61.1
77469;BME280;68840;50.272;12.818;2023-12-04T05:22:05;96187;;;-5.6;61.1
77469;BME280;68840;50.272;12.818;2023-12-04T05:24:05;96189;;;-5.6;60.9
77469;BME280;68840;50.272;12.818;2023-12-04T05:26:07;96186;;;-5.6;60.8
77469;BME280;68840;50.272;12.818;2023-12-04T05:28:05;96182;;;-5.6;60.6
77469;BME280;68840;50.272;12.818;2023-12-04T05:30:06;96178;;;-5.6;60.6
77469;BME280;68840;50.272;12.818;2023-12-04T05:32:05;96177;;;-5.7;60.7
77469;BME280;68840;50.272;12.818;2023-12-04T05:34:05;96174;;;-5.7;60.7
77469;BME280;68840;50.272;12.818;2023-12-04T05:36:07;96171;;;-5.7;60.7
77469;BME280;68840;50.272;12.818;2023-12-04T05:38:07;96167;;;-5.8;60.7
77469;BME280;68840;50.272;12.818;2023-12-04T05:40:06;96169;;;-5.8;60.8
77469;BME280;68840;50.272;12.818;2023-12-04T05:42:06;96169;;;-5.8;60.8
77469;BME280;68840;50.272;12.818;2023-12-04T05:44:05;96170;;;-5.8;60.9
77469;BME280;68840;50.272;12.818;2023-12-04T05:46:05;96170;;;-5.8;60.6
77469;BME280;68840;50.272;12.818;2023-12-04T05:48:05;96170;;;-5.8;60.6
77469;BME280;68840;50.272;12.818;2023-12-04T05:50:07;96168;;;-5.9;60.5
77469;BME280;68840;50.272;12.818;2023-12-04T05:52:05;96167;;;-5.9;60.3
77469;BME280;68840;50.272;12.818;2023-12-04T05:54:06;96164;;;-5.9;60.0
77469;BME280;68840;50.272;12.818;2023-12-04T05:56:07;96164;;;-5.9;60.2
77469;BME280;68840;50.272;12.818;2023-12-04T05:58:05;96158;;;-6.0;60.2
77469;BME280;68840;50.272;12.818;2023-12-04T06:00:12;96155;;;-6.0;59.8
77469;BME280;68840;50.272;12.818;2023-12-04T06:02:05;96150;;;-6.0;59.3
77469;BME280;68840;50.272;12.818;2023-12-04T06:04:05;96146;;;-6.1;59.0
77469;BME280;68840;50.272;12.818;2023-12-04T06:06:06;96146;;;-6.1;58.5
77469;BME280;68840;50.272;12.818;2023-12-04T06:08:05;96146;;;-6.1;58.5
77469;BME280;68840;50.272;12.818;2023-12-04T06:10:06;96145;;;-6.1;58.5
77469;BME280;68840;50.272;12.818;2023-12-04T06:12:08;96145;;;-6.2;58.8
77469;BME280;68840;50.272;12.818;2023-12-04T06:14:05;96143;;;-6.2;58.8
77469;BME280;68840;50.272;12.818;2023-12-04T06:16:06;96138;;;-6.3;58.4
77469;BME280;68840;50.272;12.818;2023-12-04T06:18:05;96137;;;-6.3;58.2
77469;BME280;68840;50.272;12.818;2023-12-04T06:20:06;96139;;;-6.3;58.3
77469;BME280;68840;50.272;12.818;2023-12-04T06:22:05;96139;;;-6.4;58.4
77469;BME280;68840;50.272;12.818;2023-12-04T06:24:08;96141;;;-6.4;58.1
77469;BME280;68840;50.272;12.818;2023-12-04T06:26:06;96140;;;-6.5;57.9
77469;BME280;68840;50.272;12.818;2023-12-04T06:28:06;96142;;;-6.5;58.1
77469;BME280;68840;50.272;12.818;2023-12-04T06:30:06;96141;;;-6.5;58.4
77469;BME280;68840;50.272;12.818;2023-12-04T06:32:06;96139;;;-6.5;58.6
77469;BME280;68840;50.272;12.818;2023-12-04T06:34:06;96137;;;-6.5;58.6
77469;BME280;68840;50.272;12.818;2023-12-04T06:36:06;96136;;;-6.5;58.7
77469;BME280;68840;50.272;12.818;2023-12-04T06:38:06;96133;;;-6.5;58.7
77469;BME280;68840;50.272;12.818;2023-12-04T06:40:08;96130;;;-6.5;59.0
77469;BME280;68840;50.272;12.818;2023-12-04T06:42:06;96131;;;-6.5;58.9
77469;BME280;68840;50.272;12.818;2023-12-04T06:44:06;96132;;;-6.5;58.9
77469;BME280;68840;50.272;12.818;2023-12-04T06:46:07;96132;;;-6.5;58.9
77469;BME280;68840;50.272;12.818;2023-12-04T06:48:06;96130;;;-6.4;59.3
77469;BME280;68840;50.272;12.818;2023-12-04T06:50:06;96129;;;-6.4;59.4
77469;BME280;68840;50.272;12.818;2023-12-04T06:52:05;96127;;;-6.3;59.4
77469;BME280;68840;50.272;12.818;2023-12-04T06:54:05;96125;;;-6.3;59.8
77469;BME280;68840;50.272;12.818;2023-12-04T06:56:06;96125;;;-6.3;59.6
77469;BME280;68840;50.272;12.818;2023-12-04T06:58:05;96124;;;-6.2;60.2
77469;BME280;68840;50.272;12.818;2023-12-04T07:00:06;96123;;;-6.2;60.6
77469;BME280;68840;50.272;12.818;2023-12-04T07:02:06;96126;;;-6.2;61.0
77469;BME280;68840;50.272;12.818;2023-12-04T07:04:09;96129;;;-6.1;61.3
77469;BME280;68840;50.272;12.818;2023-12-04T07:06:06;96126;;;-6.1;61.1
77469;BME280;68840;50.272;12.818;2023-12-04T07:08:05;96126;;;-6.0;60.6
77469;BME280;68840;50.272;12.818;2023-12-04T07:10:06;96128;;;-6.0;60.7
77469;BME280;68840;50.272;12.818;2023-12-04T07:12:06;96124;;;-5.9;60.7
77469;BME280;68840;50.272;12.818;2023-12-04T07:14:06;96124;;;-5.9;60.6
77469;BME280;68840;50.272;12.818;2023-12-04T07:16:06;96123;;;-5.8;60.6
77469;BME280;68840;50.272;12.818;2023-12-04T07:18:05;96126;;;-5.8;60.2
77469;BME280;68840;50.272;12.818;2023-12-04T07:20:06;96125;;;-5.7;60.2
77469;BME280;68840;50.272;12.818;2023-12-04T07:22:05;96125;;;-5.7;60.0
77469;BME280;68840;50.272;12.818;2023-12-04T07:24:05;96124;;;-5.6;59.8
77469;BME280;68840;50.272;12.818;2023-12-04T07:26:06;96123;;;-5.6;59.7
77469;BME280;68840;50.272;12.818;2023-12-04T07:28:05;96121;;;-5.6;59.7
77469;BME280;68840;50.272;12.818;2023-12-04T07:30:06;96120;;;-5.5;59.7
77469;BME280;68840;50.272;12.818;2023-12-04T07:32:06;96117;;;-5.5;59.5
77469;BME280;68840;50.272;12.818;2023-12-04T07:34:05;96114;;;-5.4;59.1
77469;BME280;68840;50.272;12.818;2023-12-04T07:36:05;96112;;;-5.3;59.0
77469;BME280;68840;50.272;12.818;2023-12-04T07:38:05;96112;;;-5.3;58.7
77469;BME280;68840;50.272;12.818;2023-12-04T07:40:08;96108;;;-5.2;58.8
77469;BME280;68840;50.272;12.818;2023-12-04T07:42:05;96110;;;-5.2;58.7
77469;BME280;68840;50.272;12.818;2023-12-04T07:44:06;96110;;;-5.1;58.6
77469;BME280;68840;50.272;12.818;2023-12-04T07:46:06;96106;;;-5.0;58.6
77469;BME280;68840;50.272;12.818;2023-12-04T07:48:06;96108;;;-5.0;58.6
77469;BME280;68840;50.272;12.818;2023-12-04T07:50:06;96106;;;-4.9;58.6
77469;BME280;68840;50.272;12.818;2023-12-04T07:52:05;96104;;;-4.9;58.7
77469;BME280;68840;50.272;12.818;2023-12-04T07:54:05;96106;;;-4.9;58.6
77469;BME280;68840;50.272;12.818;2023-12-04T07:56:07;96102;;;-4.9;58.7
77469;BME280;68840;50.272;12.818;2023-12-04T07:58:05;96100;;;-4.9;58.8
77469;BME280;68840;50.272;12.818;2023-12-04T08:00:06;96099;;;-4.9;58.8
77469;BME280;68840;50.272;12.818;2023-12-04T08:02:05;96094;;;-4.8;58.9
77469;BME280;68840;50.272;12.818;2023-12-04T08:04:05;96095;;;-4.8;58.8
77469;BME280;68840;50.272;12.818;2023-12-04T08:06:06;96095;;;-4.8;58.9
77469;BME280;68840;50.272;12.818;2023-12-04T08:08:05;96091;;;-4.7;59.1
77469;BME280;68840;50.272;12.818;2023-12-04T08:10:06;96089;;;-4.6;59.0
77469;BME280;68840;50.272;12.818;2023-12-04T08:12:06;96090;;;-4.6;59.1
77469;BME280;68840;50.272;12.818;2023-12-04T08:14:06;96087;;;-4.5;59.0
77469;BME280;68840;50.272;12.818;2023-12-04T08:16:12;96088;;;-4.4;59.0
77469;BME280;68840;50.272;12.818;2023-12-04T08:18:05;96090;;;-4.4;59.0
77469;BME280;68840;50.272;12.818;2023-12-04T08:20:06;96089;;;-4.3;59.0
77469;BME280;68840;50.272;12.818;2023-12-04T08:22:05;96089;;;-4.3;58.9
77469;BME280;68840;50.272;12.818;2023-12-04T08:24:05;96089;;;-4.2;58.8
77469;BME280;68840;50.272;12.818;2023-12-04T08:26:06;96086;;;-4.2;58.7
77469;BME280;68840;50.272;12.818;2023-12-04T08:28:06;96086;;;-4.2;58.7
77469;BME280;68840;50.272;12.818;2023-12-04T08:30:06;96088;;;-4.2;58.7
77469;BME280;68840;50.272;12.818;2023-12-04T08:32:06;96083;;;-4.1;58.7
77469;BME280;68840;50.272;12.818;2023-12-04T08:34:05;96081;;;-4.1;58.8
77469;BME280;68840;50.272;12.818;2023-12-04T08:36:05;96077;;;-4.0;58.8
77469;BME280;68840;50.272;12.818;2023-12-04T08:38:05;96076;;;-4.0;59.0
77469;BME280;68840;50.272;12.818;2023-12-04T08:40:08;96078;;;-4.0;59.1
77469;BME280;68840;50.272;12.818;2023-12-04T08:42:05;96075;;;-3.9;59.1
77469;BME280;68840;50.272;12.818;2023-12-04T08:44:05;96075;;;-3.9;59.3
77469;BME280;68840;50.272;12.818;2023-12-04T08:46:11;96070;;;-3.8;59.2
77469;BME280;68840;50.272;12.818;2023-12-04T08:48:05;96064;;;-3.7;59.1
77469;BME280;68840;50.272;12.818;2023-12-04T08:50:07;96060;;;-3.6;59.1
77469;BME280;68840;50.272;12.818;2023-12-04T08:52:06;96051;;;-3.5;58.9
77469;BME280;68840;50.272;12.818;2023-12-04T08:54:07;96050;;;-3.4;58.9
77469;BME280;68840;50.272;12.818;2023-12-04T08:56:06;96050;;;-3.3;58.7
77469;BME280;68840;50.272;12.818;2023-12-04T08:58:05;96050;;;-3.3;58.5
77469;BME280;68840;50.272;12.818;2023-12-04T09:00:08;96046;;;-3.2;58.2
77469;BME280;68840;50.272;12.818;2023-12-04T09:02:06;96048;;;-3.2;58.2
77469;BME280;68840;50.272;12.818;2023-12-04T09:04:08;96050;;;-3.1;57.9
77469;BME280;68840;50.272;12.818;2023-12-04T09:06:05;96051;;;-3.1;57.7
77469;BME280;68840;50.272;12.818;2023-12-04T09:08:07;96047;;;-3.1;57.7
77469;BME280;68840;50.272;12.818;2023-12-04T09:10:06;96046;;;-3.1;57.8
77469;BME280;68840;50.272;12.818;2023-12-04T09:12:07;96046;;;-3.0;57.7
77469;BME280;68840;50.272;12.818;2023-12-04T09:14:05;96045;;;-2.9;57.4
77469;BME280;68840;50.272;12.818;2023-12-04T09:16:06;96047;;;-2.8;57.3
77469;BME280;68840;50.272;12.818;2023-12-04T09:18:05;96045;;;-2.8;57.1
77469;BME280;68840;50.272;12.818;2023-12-04T09:20:06;96047;;;-2.7;57.1
77469;BME280;68840;50.272;12.818;2023-12-04T09:22:05;96050;;;-2.7;57.0
77469;BME280;68840;50.272;12.818;2023-12-04T09:24:06;96052;;;-2.7;57.0
77469;BME280;68840;50.272;12.818;2023-12-04T09:26:05;96055;;;-2.7;56.8
77469;BME280;68840;50.272;12.818;2023-12-04T09:28:05;96055;;;-2.7;56.9
77469;BME280;68840;50.272;12.818;2023-12-04T09:30:06;96056;;;-2.7;56.9
77469;BME280;68840;50.272;12.818;2023-12-04T09:32:06;96057;;;-2.7;56.9
77469;BME280;68840;50.272;12.818;2023-12-04T09:34:05;96063;;;-2.7;56.9
77469;BME280;68840;50.272;12.818;2023-12-04T09:36:06;96066;;;-2.6;56.8
77469;BME280;68840;50.272;12.818;2023-12-04T09:38:05;96064;;;-2.6;56.9
77469;BME280;68840;50.272;12.818;2023-12-04T09:40:08;96063;;;-2.5;56.8
77469;BME280;68840;50.272;12.818;2023-12-04T09:42:06;96061;;;-2.5;56.8
77469;BME280;68840;50.272;12.818;2023-12-04T09:44:07;96057;;;-2.4;56.7
77469;BME280;68840;50.272;12.818;2023-12-04T09:46:07;96055;;;-2.3;56.4
77469;BME280;68840;50.272;12.818;2023-12-04T09:48:06;96051;;;-2.3;56.2
77469;BME280;68840;50.272;12.818;2023-12-04T09:50:07;96049;;;-2.2;56.1
77469;BME280;68840;50.272;12.818;2023-12-04T09:52:06;96044;;;-2.2;56.1
77469;BME280;68840;50.272;12.818;2023-12-04T09:54:07;96039;;;-2.1;56.0
77469;BME280;68840;50.272;12.818;2023-12-04T09:56:08;96035;;;-2.1;56.2
77469;BME280;68840;50.272;12.818;2023-12-04T09:58:06;96029;;;-2.0;56.1
77469;BME280;68840;50.272;12.818;2023-12-04T10:00:07;96024;;;-2.0;56.0
77469;BME280;68840;50.272;12.818;2023-12-04T10:02:06;96019;;;-1.9;56.0
77469;BME280;68840;50.272;12.818;2023-12-04T10:04:06;96015;;;-1.9;55.9
77469;BME280;68840;50.272;12.818;2023-12-04T10:06:06;96016;;;-1.9;55.6
77469;BME280;68840;50.272;12.818;2023-12-04T10:08:06;96014;;;-1.8;55.6
77469;BME280;68840;50.272;12.818;2023-12-04T10:10:06;96017;;;-1.8;55.4
77469;BME280;68840;50.272;12.818;2023-12-04T10:12:06;96016;;;-1.8;55.4
77469;BME280;68840;50.272;12.818;2023-12-04T10:14:14;96011;;;-1.8;55.2
77469;BME280;68840;50.272;12.818;2023-12-04T10:16:07;96003;;;-1.8;55.1
77469;BME280;68840;50.272;12.818;2023-12-04T10:18:05;96001;;;-1.9;55.1
77469;BME280;68840;50.272;12.818;2023-12-04T10:20:12;96000;;;-1.9;55.3
77469;BME280;68840;50.272;12.818;2023-12-04T10:22:09;96000;;;-1.9;55.3
77469;BME280;68840;50.272;12.818;2023-12-04T10:24:06;95994;;;-1.8;55.2
77469;BME280;68840;50.272;12.818;2023-12-04T10:26:07;95991;;;-1.8;55.0
77469;BME280;68840;50.272;12.818;2023-12-04T10:28:08;95988;;;-1.8;54.9
77469;BME280;68840;50.272;12.818;2023-12-04T10:30:07;95982;;;-1.8;54.8
77469;BME280;68840;50.272;12.818;2023-12-04T10:32:05;95981;;;-1.8;54.6
77469;BME280;68840;50.272;12.818;2023-12-04T10:34:05;95977;;;-1.9;54.5
77469;BME280;68840;50.272;12.818;2023-12-04T10:36:11;95972;;;-2.0;54.5
77469;BME280;68840;50.272;12.818;2023-12-04T10:38:07;95968;;;-2.0;54.6
77469;BME280;68840;50.272;12.818;2023-12-04T10:40:08;95964;;;-2.1;54.7
77469;BME280;68840;50.272;12.818;2023-12-04T10:42:06;95961;;;-2.2;54.8
77469;BME280;68840;50.272;12.818;2023-12-04T10:44:06;95955;;;-2.2;55.0
77469;BME280;68840;50.272;12.818;2023-12-04T10:46:06;95956;;;-2.3;55.2
77469;BME280;68840;50.272;12.818;2023-12-04T10:48:06;95945;;;-2.3;55.3
77469;BME280;68840;50.272;12.818;2023-12-04T10:50:07;95939;;;-2.3;55.2
77469;BME280;68840;50.272;12.818;2023-12-04T10:52:05;95931;;;-2.4;55.4
77469;BME280;68840;50.272;12.818;2023-12-04T10:54:05;95923;;;-2.4;55.4
77469;BME280;68840;50.272;12.818;2023-12-04T10:56:06;95919;;;-2.4;55.4
77469;BME280;68840;50.272;12.818;2023-12-04T10:58:07;95914;;;-2.4;55.5
77469;BME280;68840;50.272;12.818;2023-12-04T11:00:08;95910;;;-2.4;55.6
77469;BME280;68840;50.272;12.818;2023-12-04T11:02:08;95911;;;-2.4;55.6
77469;BME280;68840;50.272;12.818;2023-12-04T11:04:07;95915;;;-2.4;55.6
77469;BME280;68840;50.272;12.818;2023-12-04T11:06:09;95915;;;-2.4;55.6
77469;BME280;68840;50.272;12.818;2023-12-04T11:08:08;95914;;;-2.4;55.4
77469;BME280;68840;50.272;12.818;2023-12-04T11:10:08;95908;;;-2.3;55.3